Time;durP1;ratioP1;P1;durP2;ratioP2;P2;SDS_P1;SDS_P2;PMS_P1;PMS_P2;Temp;Humidity;BMP_temperature;BMP_pressure;BME280_temperature;BME280_humidity;BME280_pressure;Samples;Min_cycle;Max_cycle;Signal;HPM_P1;HPM_P2
2021/09/14 00:00:27;;;;;;;6.70;4.20;;;12.70;99.90;;;;;;5056778;28;20036;-45
2021/09/14 00:02:53;;;;;;;5.07;3.60;;;12.60;99.90;;;;;;5061065;28;20499;-43
2021/09/14 00:05:18;;;;;;;9.68;4.20;;;12.60;99.90;;;;;;5069918;28;20029;-43
2021/09/14 00:07:44;;;;;;;4.82;3.95;;;12.50;99.90;;;;;;5069065;28;20104;-45
2021/09/14 00:10:10;;;;;;;4.88;4.22;;;12.50;99.90;;;;;;5069369;28;20161;-44
2021/09/14 00:12:35;;;;;;;7.72;4.32;;;12.50;99.90;;;;;;5069695;28;20390;-43
2021/09/14 00:15:01;;;;;;;6.65;4.07;;;12.40;99.90;;;;;;5063240;28;20083;-43
2021/09/14 00:17:26;;;;;;;7.85;4.60;;;12.40;99.90;;;;;;5060125;28;20016;-43
2021/09/14 00:19:52;;;;;;;6.55;4.85;;;12.40;99.90;;;;;;5069295;28;20024;-44
2021/09/14 00:22:17;;;;;;;7.43;4.97;;;12.50;99.90;;;;;;5069021;28;20410;-44
2021/09/14 00:24:43;;;;;;;7.40;4.60;;;12.50;99.90;;;;;;5069229;28;20021;-44
2021/09/14 00:27:08;;;;;;;7.18;4.28;;;12.50;99.90;;;;;;5068284;28;20037;-44
2021/09/14 00:29:34;;;;;;;8.30;4.55;;;12.40;99.90;;;;;;5068851;28;20025;-43
2021/09/14 00:31:59;;;;;;;12.73;4.80;;;12.40;99.90;;;;;;5068547;28;20027;-44
2021/09/14 00:34:25;;;;;;;9.30;4.63;;;12.40;99.90;;;;;;5068833;28;20363;-45
2021/09/14 00:36:50;;;;;;;8.50;4.72;;;12.40;99.90;;;;;;5068160;28;20055;-44
2021/09/14 00:39:16;;;;;;;9.55;4.25;;;12.30;99.90;;;;;;5068727;28;20095;-43
2021/09/14 00:41:41;;;;;;;9.07;4.55;;;12.30;99.90;;;;;;5068924;28;20342;-46
2021/09/14 00:44:07;;;;;;;7.53;4.63;;;12.30;99.90;;;;;;5069012;28;20425;-43
2021/09/14 00:46:32;;;;;;;9.10;5.00;;;12.30;99.90;;;;;;5056311;28;20451;-44
2021/09/14 00:48:58;;;;;;;6.78;4.28;;;12.30;99.90;;;;;;5066160;28;20426;-43
2021/09/14 00:51:24;;;;;;;7.50;4.07;;;12.30;99.90;;;;;;5069243;28;20032;-43
2021/09/14 00:54:09;;;;;;;5.30;3.92;;;12.20;99.90;;;;;;5068887;28;20029;-43
2021/09/14 00:56:37;;;;;;;15.18;4.72;;;12.20;99.90;;;;;;5045426;28;20041;-44
2021/09/14 00:59:03;;;;;;;4.97;3.80;;;12.20;99.90;;;;;;5045460;28;20041;-44
2021/09/14 01:01:28;;;;;;;8.77;4.85;;;12.20;99.90;;;;;;5064425;28;20049;-43
2021/09/14 01:03:54;;;;;;;7.65;3.83;;;12.30;99.90;;;;;;5054652;28;20090;-45
2021/09/14 01:06:19;;;;;;;7.45;4.82;;;12.30;99.90;;;;;;5043865;28;20103;-44
2021/09/14 01:08:45;;;;;;;5.88;3.50;;;12.30;99.90;;;;;;5047874;28;20037;-44
2021/09/14 01:11:11;;;;;;;6.43;4.22;;;12.40;99.90;;;;;;5048528;28;20418;-45
2021/09/14 01:13:36;;;;;;;6.10;4.03;;;12.40;99.90;;;;;;5048369;28;20041;-43
2021/09/14 01:16:06;;;;;;;5.45;4.00;;;12.40;99.90;;;;;;5048755;28;20048;-46
2021/09/14 01:18:32;;;;;;;7.57;4.20;;;12.40;99.90;;;;;;5063151;28;20378;-45
2021/09/14 01:20:58;;;;;;;5.93;3.80;;;12.40;99.90;;;;;;5067004;28;20043;-46
2021/09/14 01:23:23;;;;;;;6.28;4.45;;;12.40;99.90;;;;;;5068477;28;20133;-44
2021/09/14 01:25:49;;;;;;;6.05;4.40;;;12.30;99.90;;;;;;5068331;28;20033;-44
2021/09/14 01:28:14;;;;;;;11.60;4.78;;;12.30;99.90;;;;;;5067564;28;20343;-44
2021/09/14 01:30:40;;;;;;;6.65;3.70;;;12.30;99.90;;;;;;5068020;28;20081;-45
2021/09/14 01:33:06;;;;;;;6.80;3.78;;;12.30;99.90;;;;;;5068185;28;20029;-43
2021/09/14 01:35:32;;;;;;;8.15;4.13;;;12.30;99.90;;;;;;5068376;28;20089;-44
2021/09/14 01:37:59;;;;;;;7.07;4.45;;;12.20;99.90;;;;;;5043599;28;20481;-43
2021/09/14 01:40:25;;;;;;;7.50;4.20;;;12.30;99.90;;;;;;5028558;28;20164;-45
2021/09/14 01:42:51;;;;;;;5.50;4.18;;;12.20;99.90;;;;;;5028236;28;20517;-43
2021/09/14 01:45:16;;;;;;;7.40;4.63;;;12.30;99.90;;;;;;5036888;28;20020;-44
2021/09/14 01:47:43;;;;;;;4.47;3.65;;;12.30;99.90;;;;;;5059018;28;20028;-43
2021/09/14 01:50:10;;;;;;;6.10;4.60;;;12.20;99.90;;;;;;5068030;28;20036;-43
2021/09/14 01:52:37;;;;;;;6.22;4.05;;;12.30;99.90;;;;;;5068120;28;20017;-45
2021/09/14 01:55:11;;;;;;;9.32;4.57;;;12.20;99.90;;;;;;5068190;28;20036;-43
2021/09/14 01:57:41;;;;;;;5.82;4.10;;;12.20;99.90;;;;;;5067219;28;20490;-43
2021/09/14 02:00:17;;;;;;;6.70;4.38;;;12.20;99.90;;;;;;5066402;28;20034;-46
2021/09/14 02:40:20;;;;;;;5.30;3.97;;;11.80;99.90;;;;;;5051209;28;20418;-42
2021/09/14 02:43:01;;;;;;;7.40;4.18;;;11.80;99.90;;;;;;5051008;28;20104;-44
2021/09/14 02:56:36;;;;;;;6.75;3.88;;;11.60;99.90;;;;;;5070402;28;20032;-43
2021/09/14 02:59:01;;;;;;;7.20;3.40;;;11.60;99.90;;;;;;5071001;28;20099;-43
2021/09/14 03:01:27;;;;;;;10.05;4.13;;;11.50;99.90;;;;;;5070756;28;20427;-43
2021/09/14 03:03:54;;;;;;;5.93;4.18;;;11.50;99.90;;;;;;5069201;28;20066;-44
2021/09/14 03:06:20;;;;;;;9.20;4.70;;;11.50;99.90;;;;;;5070605;28;20111;-43
2021/09/14 03:08:47;;;;;;;7.78;4.15;;;11.50;99.90;;;;;;5070222;28;20100;-43
2021/09/14 03:11:15;;;;;;;6.78;3.47;;;11.50;99.90;;;;;;5070356;28;20017;-43
2021/09/14 03:13:42;;;;;;;8.60;4.13;;;11.50;99.90;;;;;;5070393;28;20028;-45
2021/09/14 03:16:10;;;;;;;7.30;4.63;;;11.50;99.90;;;;;;5051924;28;20375;-44
2021/09/14 03:18:36;;;;;;;6.15;3.97;;;11.50;99.90;;;;;;5061353;28;20397;-43
2021/09/14 03:21:04;;;;;;;7.40;4.22;;;11.50;99.90;;;;;;5069918;28;20051;-43
2021/09/14 03:23:30;;;;;;;7.63;4.35;;;11.50;99.90;;;;;;5068934;28;20081;-44
2021/09/14 03:25:56;;;;;;;8.85;4.45;;;11.50;99.90;;;;;;5070151;28;20103;-43
2021/09/14 03:28:21;;;;;;;7.35;4.97;;;11.50;99.90;;;;;;5069474;28;20151;-43
2021/09/14 03:30:48;;;;;;;9.32;4.75;;;11.50;99.90;;;;;;5057209;28;20047;-43
2021/09/14 03:33:14;;;;;;;6.68;4.30;;;11.50;99.90;;;;;;5062491;28;20627;-44
2021/09/14 03:35:40;;;;;;;8.02;4.75;;;11.50;99.90;;;;;;5070264;28;20039;-43
2021/09/14 03:38:05;;;;;;;9.90;5.57;;;11.50;99.90;;;;;;5059941;28;20017;-43
2021/09/14 03:40:31;;;;;;;7.18;5.28;;;11.50;99.90;;;;;;5061965;28;20028;-43
2021/09/14 03:42:56;;;;;;;9.27;4.90;;;11.50;99.90;;;;;;5070099;28;20057;-43
2021/09/14 03:45:22;;;;;;;6.90;5.22;;;11.50;99.90;;;;;;5069599;28;20028;-42
2021/09/14 03:47:47;;;;;;;10.00;5.68;;;11.50;99.90;;;;;;5069047;28;20070;-43
2021/09/14 03:50:13;;;;;;;8.50;5.70;;;11.50;99.90;;;;;;5068231;28;20075;-42
2021/09/14 03:52:38;;;;;;;10.70;5.43;;;11.50;99.90;;;;;;5068121;28;20480;-43
2021/09/14 03:55:05;;;;;;;8.40;5.68;;;11.50;99.90;;;;;;5069602;28;20058;-43
2021/09/14 03:57:31;;;;;;;7.35;5.93;;;11.50;99.90;;;;;;5068849;28;20039;-43
2021/09/14 03:59:56;;;;;;;12.15;6.82;;;11.40;99.90;;;;;;5069891;28;20032;-42
2021/09/14 04:10:11;;;;;;;8.25;6.07;;;11.40;99.90;;;;;;5046785;28;20044;-43
2021/09/14 04:12:36;;;;;;;9.15;6.20;;;11.40;99.90;;;;;;5050589;28;20041;-43
2021/09/14 04:15:02;;;;;;;7.13;6.10;;;11.40;99.90;;;;;;5050868;28;20036;-42
2021/09/14 04:17:28;;;;;;;7.32;6.45;;;11.40;99.90;;;;;;5049887;28;20025;-43
2021/09/14 04:19:53;;;;;;;10.48;5.90;;;11.40;99.90;;;;;;5050387;28;20040;-44
2021/09/14 04:22:19;;;;;;;9.70;5.55;;;11.40;99.90;;;;;;5049240;28;20017;-42
2021/09/14 04:24:44;;;;;;;11.13;6.30;;;11.40;99.90;;;;;;5050479;28;20029;-43
2021/09/14 04:27:10;;;;;;;8.68;6.28;;;11.40;99.90;;;;;;5049873;28;20071;-43
2021/09/14 04:29:36;;;;;;;8.65;5.68;;;11.40;99.90;;;;;;5050556;28;20475;-43
2021/09/14 04:32:02;;;;;;;11.90;6.30;;;11.40;99.90;;;;;;5050026;28;20033;-43
2021/09/14 04:34:28;;;;;;;7.38;5.45;;;11.40;99.90;;;;;;5049229;28;20054;-43
2021/09/14 04:36:54;;;;;;;9.00;5.60;;;11.40;99.90;;;;;;5044022;28;20045;-43
2021/09/14 04:39:19;;;;;;;9.90;6.80;;;11.40;99.90;;;;;;5052083;28;20071;-43
2021/09/14 04:41:46;;;;;;;9.48;6.63;;;11.40;99.90;;;;;;5061854;28;20161;-42
2021/09/14 04:44:11;;;;;;;10.10;5.32;;;11.40;99.90;;;;;;5036676;28;20021;-42
2021/09/14 04:46:37;;;;;;;7.18;5.32;;;11.40;99.90;;;;;;5037271;28;20422;-43
2021/09/14 04:49:03;;;;;;;6.43;4.95;;;11.30;99.90;;;;;;5030007;28;20095;-43
2021/09/14 04:51:29;;;;;;;9.27;5.55;;;11.30;99.90;;;;;;5028573;28;20065;-43
2021/09/14 04:53:54;;;;;;;8.15;5.80;;;11.30;99.90;;;;;;5033944;28;20060;-43
2021/09/14 04:56:20;;;;;;;11.40;6.13;;;11.30;99.90;;;;;;5048384;28;20510;-42
2021/09/14 04:58:49;;;;;;;9.23;5.63;;;11.30;99.90;;;;;;5046717;28;20017;-43
2021/09/14 05:01:16;;;;;;;8.95;5.95;;;11.30;99.90;;;;;;5048497;28;20108;-42
2021/09/14 05:03:41;;;;;;;9.18;5.88;;;11.30;99.90;;;;;;5048335;28;20056;-43
2021/09/14 05:06:07;;;;;;;8.70;5.40;;;11.30;99.90;;;;;;5048212;28;20064;-43
2021/09/14 05:08:34;;;;;;;7.57;5.82;;;11.30;99.90;;;;;;5046508;28;20029;-43
2021/09/14 05:11:00;;;;;;;11.23;6.85;;;11.30;99.90;;;;;;5039689;28;20017;-43
2021/09/14 05:13:26;;;;;;;9.68;7.63;;;11.30;99.90;;;;;;5039965;28;20039;-44
2021/09/14 05:15:52;;;;;;;11.25;7.10;;;11.30;99.90;;;;;;5031030;28;20450;-43
2021/09/14 05:18:17;;;;;;;11.20;6.25;;;11.30;99.90;;;;;;5021524;28;20669;-42
2021/09/14 05:20:45;;;;;;;13.65;6.75;;;11.40;99.90;;;;;;5035984;28;20029;-42
2021/09/14 05:23:15;;;;;;;8.43;6.15;;;11.40;99.90;;;;;;5046275;28;20108;-42
2021/09/14 05:25:45;;;;;;;8.85;6.75;;;11.40;99.90;;;;;;5046756;28;20027;-43
2021/09/14 05:28:13;;;;;;;10.00;5.88;;;11.40;99.90;;;;;;5045866;28;20041;-42
2021/09/14 05:30:40;;;;;;;11.30;6.18;;;11.40;99.90;;;;;;5046710;28;20624;-43
2021/09/14 05:33:05;;;;;;;11.55;6.05;;;11.50;99.90;;;;;;5046327;28;20025;-42
2021/09/14 05:35:46;;;;;;;7.72;5.47;;;11.50;99.90;;;;;;5045365;28;20267;-44
2021/09/14 05:38:14;;;;;;;32.95;18.75;;;11.40;99.90;;;;;;5045704;28;20109;-43
2021/09/14 05:40:39;;;;;;;19.10;13.25;;;11.50;99.90;;;;;;5046560;28;20055;-44
2021/09/14 05:43:05;;;;;;;17.77;10.52;;;11.50;99.90;;;;;;5039396;28;20100;-43
2021/09/14 05:45:31;;;;;;;18.40;8.55;;;11.50;99.90;;;;;;5049020;28;20036;-43
2021/09/14 05:47:57;;;;;;;15.40;8.02;;;11.60;99.90;;;;;;5049847;28;20104;-42
2021/09/14 05:50:23;;;;;;;13.57;7.60;;;11.60;99.90;;;;;;5047287;28;20115;-42
2021/09/14 05:52:49;;;;;;;12.30;8.23;;;11.70;99.90;;;;;;5050627;28;20044;-44
2021/09/14 05:55:14;;;;;;;11.70;7.78;;;11.70;99.90;;;;;;5050763;28;20421;-43
2021/09/14 05:57:40;;;;;;;13.02;7.60;;;11.70;99.90;;;;;;5049926;28;20021;-43
2021/09/14 06:00:06;;;;;;;11.02;7.85;;;11.80;99.90;;;;;;5051392;28;20107;-42
2021/09/14 06:02:31;;;;;;;21.50;8.73;;;11.80;99.90;;;;;;5065589;28;20124;-44
2021/09/14 06:04:58;;;;;;;17.20;8.98;;;11.90;99.90;;;;;;5062652;28;20401;-42
2021/09/14 06:07:23;;;;;;;16.40;8.73;;;11.90;99.90;;;;;;5057473;28;20024;-43
2021/09/14 06:09:49;;;;;;;15.80;9.48;;;12.00;99.90;;;;;;5050412;28;20037;-43
2021/09/14 06:12:14;;;;;;;19.30;9.15;;;12.00;99.90;;;;;;5050850;28;20031;-43
2021/09/14 06:14:40;;;;;;;18.23;9.55;;;12.10;99.90;;;;;;5042772;28;20111;-43
2021/09/14 06:17:05;;;;;;;12.65;8.77;;;12.20;99.90;;;;;;5029753;28;20022;-43
2021/09/14 06:19:31;;;;;;;16.55;9.07;;;12.20;99.90;;;;;;5039394;28;20396;-42
2021/09/14 06:21:56;;;;;;;13.18;8.60;;;12.30;99.90;;;;;;5040544;28;20033;-42
2021/09/14 06:24:23;;;;;;;12.77;8.32;;;12.30;99.90;;;;;;5040803;28;20045;-42
2021/09/14 06:26:49;;;;;;;12.52;8.25;;;12.40;99.90;;;;;;5038219;28;20060;-42
2021/09/14 06:29:14;;;;;;;18.98;8.95;;;12.50;99.90;;;;;;5039858;28;20040;-42
2021/09/14 06:31:40;;;;;;;14.25;8.93;;;12.60;99.90;;;;;;5040543;28;20034;-43
2021/09/14 06:34:05;;;;;;;13.70;8.95;;;12.60;99.90;;;;;;5037137;28;20018;-43
2021/09/14 06:36:31;;;;;;;10.68;7.72;;;12.70;99.90;;;;;;5038034;28;20021;-43
2021/09/14 06:38:56;;;;;;;11.73;8.05;;;12.80;99.90;;;;;;5038922;28;20092;-43
2021/09/14 06:41:22;;;;;;;12.85;8.05;;;12.80;99.90;;;;;;5038836;28;20030;-42
2021/09/14 06:43:48;;;;;;;11.05;7.85;;;12.90;99.90;;;;;;5039986;28;20479;-43
2021/09/14 06:46:14;;;;;;;11.90;7.93;;;13.00;99.90;;;;;;5038766;28;20065;-43
2021/09/14 06:48:40;;;;;;;17.58;9.50;;;13.10;99.90;;;;;;5038438;28;20026;-42
2021/09/14 06:51:05;;;;;;;12.85;8.88;;;13.10;99.90;;;;;;5037002;28;20022;-43
2021/09/14 06:53:31;;;;;;;12.48;8.48;;;13.20;99.90;;;;;;5037839;28;20052;-45
2021/09/14 06:55:57;;;;;;;13.93;9.23;;;13.30;99.90;;;;;;5039028;28;20017;-43
2021/09/14 06:58:23;;;;;;;16.45;9.25;;;13.40;99.90;;;;;;5037729;28;20022;-43
2021/09/14 07:00:48;;;;;;;104.53;67.50;;;13.50;99.90;;;;;;5039886;28;20033;-43
2021/09/14 07:03:14;;;;;;;40.30;26.95;;;13.70;99.90;;;;;;5042351;28;20033;-44
2021/09/14 07:05:40;;;;;;;44.90;31.80;;;13.70;99.90;;;;;;5050146;28;20021;-44
2021/09/14 07:08:06;;;;;;;21.48;16.52;;;13.80;99.90;;;;;;5049452;28;20049;-44
2021/09/14 07:10:31;;;;;;;17.27;10.52;;;13.90;99.90;;;;;;5050319;28;20457;-44
2021/09/14 07:12:57;;;;;;;12.73;9.65;;;14.10;99.90;;;;;;5050403;28;20096;-43
2021/09/14 07:15:23;;;;;;;10.30;8.60;;;14.20;99.90;;;;;;5049132;28;20120;-42
2021/09/14 07:17:48;;;;;;;14.68;9.80;;;14.20;99.90;;;;;;5049554;28;20209;-43
2021/09/14 07:20:14;;;;;;;14.48;10.13;;;14.30;99.90;;;;;;5050260;28;20036;-46
2021/09/14 07:22:39;;;;;;;15.45;11.23;;;14.30;99.90;;;;;;5050341;28;20383;-44
2021/09/14 07:25:06;;;;;;;13.65;10.25;;;14.30;99.90;;;;;;5050307;28;20255;-43
2021/09/14 07:27:32;;;;;;;16.50;11.73;;;14.40;99.90;;;;;;5041644;28;20025;-44
2021/09/14 07:29:57;;;;;;;15.13;11.00;;;14.50;99.90;;;;;;5040203;28;20489;-43
2021/09/14 07:32:23;;;;;;;14.60;10.35;;;14.50;99.90;;;;;;5038226;28;20014;-42
2021/09/14 07:34:48;;;;;;;17.27;12.27;;;14.70;99.90;;;;;;5039585;28;20025;-43
2021/09/14 07:37:14;;;;;;;20.90;12.52;;;14.80;99.90;;;;;;5037905;28;20015;-43
2021/09/14 07:39:39;;;;;;;19.00;12.45;;;14.90;99.90;;;;;;5036527;28;20518;-44
2021/09/14 07:42:05;;;;;;;17.98;11.95;;;15.00;99.90;;;;;;5040347;28;20021;-43
2021/09/14 07:44:30;;;;;;;17.05;11.68;;;15.10;99.90;;;;;;5038904;28;20467;-46
2021/09/14 07:46:56;;;;;;;19.98;12.73;;;15.20;99.90;;;;;;5038122;28;20060;-43
2021/09/14 07:49:21;;;;;;;19.90;12.05;;;15.30;99.90;;;;;;5040387;28;20096;-43
2021/09/14 07:51:47;;;;;;;21.40;13.18;;;15.50;99.90;;;;;;5036911;28;20548;-42
2021/09/14 07:54:12;;;;;;;19.13;12.55;;;15.70;99.90;;;;;;5038561;28;20021;-42
2021/09/14 07:56:38;;;;;;;16.75;11.48;;;15.90;99.90;;;;;;5024756;28;20029;-45
2021/09/14 07:59:03;;;;;;;21.45;12.27;;;16.00;99.90;;;;;;5035128;28;20399;-44
2021/09/14 08:01:29;;;;;;;14.52;10.88;;;16.20;99.90;;;;;;5039630;28;20017;-44
2021/09/14 08:03:54;;;;;;;12.75;9.77;;;16.50;99.90;;;;;;5048358;28;20434;-46
2021/09/14 08:06:20;;;;;;;16.13;10.27;;;16.90;99.90;;;;;;5047729;28;20354;-43
2021/09/14 08:08:45;;;;;;;12.48;9.27;;;17.30;99.90;;;;;;5046688;28;20039;-44
2021/09/14 08:11:11;;;;;;;14.07;9.75;;;17.80;99.90;;;;;;5048283;28;20043;-44
2021/09/14 08:13:37;;;;;;;15.80;9.23;;;18.30;99.90;;;;;;5043176;28;20565;-47
2021/09/14 08:16:03;;;;;;;14.27;8.13;;;18.90;99.90;;;;;;5026447;28;20522;-44
2021/09/14 08:18:29;;;;;;;13.00;7.15;;;19.50;99.90;;;;;;5026942;28;20025;-45
2021/09/14 08:20:55;;;;;;;10.38;7.05;;;20.10;99.90;;;;;;5027612;28;20037;-47
2021/09/14 08:23:21;;;;;;;24.33;17.30;;;21.00;99.90;;;;;;5026385;28;20068;-44
2021/09/14 08:25:46;;;;;;;27.92;22.48;;;22.00;99.90;;;;;;5027455;28;20037;-41
2021/09/14 08:28:12;;;;;;;69.25;54.55;;;23.40;99.90;;;;;;5027617;28;20624;-42
2021/09/14 08:30:37;;;;;;;111.28;91.03;;;24.90;99.90;;;;;;5026521;28;20038;-42
2021/09/14 08:33:04;;;;;;;23.05;18.90;;;26.20;97.40;;;;;;5027690;28;20060;-42
2021/09/14 08:35:30;;;;;;;10.85;6.22;;;27.00;95.30;;;;;;5025554;28;20033;-43
2021/09/14 08:37:55;;;;;;;6.65;4.63;;;27.60;91.90;;;;;;5027129;28;20080;-44
2021/09/14 08:40:21;;;;;;;7.03;4.22;;;28.50;90.10;;;;;;5027221;28;20426;-44
2021/09/14 08:42:47;;;;;;;7.13;3.83;;;29.80;82.20;;;;;;5036090;28;20082;-44
2021/09/14 08:45:12;;;;;;;6.70;4.65;;;30.30;78.30;;;;;;5047532;28;20035;-45
2021/09/14 08:47:39;;;;;;;4.45;3.42;;;31.00;73.30;;;;;;5043006;28;20033;-44
2021/09/14 08:50:06;;;;;;;5.43;3.83;;;31.40;72.40;;;;;;5047211;28;20029;-45
2021/09/14 08:52:32;;;;;;;6.47;3.60;;;31.80;68.30;;;;;;5046580;28;20404;-44
2021/09/14 08:54:58;;;;;;;8.63;4.55;;;31.90;66.00;;;;;;5033687;28;20029;-43
2021/09/14 08:57:23;;;;;;;6.55;3.47;;;32.10;64.90;;;;;;5027501;28;20037;-43
2021/09/14 08:59:49;;;;;;;8.40;3.28;;;31.90;67.30;;;;;;5026966;28;20049;-45
2021/09/14 09:02:17;;;;;;;6.82;3.63;;;32.20;64.60;;;;;;5028421;28;20155;-42
2021/09/14 09:04:56;;;;;;;4.95;4.22;;;32.90;63.40;;;;;;5028110;28;20540;-45
2021/09/14 09:07:36;;;;;;;3.40;2.78;;;33.20;60.50;;;;;;5010061;28;20033;-46
2021/09/14 09:10:13;;;;;;;4.13;2.80;;;33.40;61.10;;;;;;5028351;28;20033;-43
2021/09/14 09:12:40;;;;;;;8.23;3.25;;;33.30;59.00;;;;;;5028109;28;20030;-43
2021/09/14 09:15:09;;;;;;;3.85;2.83;;;34.00;58.50;;;;;;5027795;28;20068;-43
2021/09/14 09:17:35;;;;;;;4.03;2.93;;;34.00;59.80;;;;;;5027335;28;20064;-42
2021/09/14 09:20:03;;;;;;;3.42;2.67;;;34.50;57.50;;;;;;5027154;28;20030;-43
2021/09/14 09:22:28;;;;;;;4.05;2.53;;;35.00;55.60;;;;;;5027490;28;20029;-43
2021/09/14 09:24:55;;;;;;;3.97;2.53;;;35.60;53.10;;;;;;5027593;28;20033;-44
2021/09/14 09:27:24;;;;;;;2.80;2.40;;;36.00;51.40;;;;;;5027218;28;20072;-44
2021/09/14 09:30:07;;;;;;;2.67;2.47;;;35.90;52.20;;;;;;5028086;28;20037;-43
2021/09/14 09:32:51;;;;;;;4.43;2.90;;;35.40;52.40;;;;;;5027927;28;20080;-43
2021/09/14 09:35:27;;;;;;;3.17;2.50;;;35.70;50.20;;;;;;5027679;28;20053;-44
2021/09/14 09:37:54;;;;;;;6.97;3.17;;;35.80;49.80;;;;;;5027023;28;20124;-43
2021/09/14 09:40:32;;;;;;;5.43;2.45;;;36.20;49.10;;;;;;5027881;28;20037;-43
2021/09/14 09:43:05;;;;;;;5.38;2.85;;;35.80;51.50;;;;;;5027770;28;20087;-42
2021/09/14 09:45:31;;;;;;;4.50;3.13;;;36.10;49.30;;;;;;5027675;28;20026;-42
2021/09/14 09:47:57;;;;;;;3.50;2.63;;;35.90;49.10;;;;;;5027002;28;20032;-43
2021/09/14 09:50:23;;;;;;;3.05;2.75;;;36.20;50.40;;;;;;5027597;28;20076;-45
2021/09/14 09:52:49;;;;;;;3.88;2.70;;;36.10;48.40;;;;;;5027735;28;20021;-43
2021/09/14 09:55:15;;;;;;;5.20;3.25;;;36.80;48.30;;;;;;5040760;28;20555;-44
2021/09/14 09:57:41;;;;;;;4.60;3.65;;;36.70;48.20;;;;;;5046984;28;20032;-44
2021/09/14 10:00:13;;;;;;;3.28;2.60;;;36.70;48.20;;;;;;5047406;28;20017;-44
2021/09/14 10:02:47;;;;;;;6.82;3.15;;;36.70;50.50;;;;;;5047429;28;20473;-43
2021/09/14 10:05:14;;;;;;;5.28;3.20;;;37.10;48.00;;;;;;5043787;28;20025;-43
2021/09/14 10:07:44;;;;;;;5.93;3.60;;;37.60;47.50;;;;;;5027379;28;20029;-43
2021/09/14 10:10:10;;;;;;;5.70;3.22;;;37.60;47.10;;;;;;5026041;28;20044;-42
2021/09/14 10:12:36;;;;;;;5.93;3.38;;;37.40;46.90;;;;;;5027330;28;20434;-43
2021/09/14 10:15:14;;;;;;;6.30;3.38;;;37.60;46.50;;;;;;5027012;28;20065;-43
2021/09/14 10:17:54;;;;;;;4.30;3.38;;;37.60;44.80;;;;;;5026820;28;20076;-43
2021/09/14 10:20:25;;;;;;;8.20;4.93;;;37.00;46.70;;;;;;5027215;28;20120;-42
2021/09/14 10:22:59;;;;;;;4.80;3.05;;;36.60;46.00;;;;;;5027546;28;20509;-45
2021/09/14 10:25:25;;;;;;;4.50;3.53;;;36.90;47.00;;;;;;5027097;28;20021;-45
2021/09/14 10:27:50;;;;;;;7.82;5.00;;;36.80;46.10;;;;;;5026694;28;20504;-44
2021/09/14 10:30:23;;;;;;;17.60;15.75;;;37.10;45.50;;;;;;5027432;28;20161;-45
2021/09/14 10:32:48;;;;;;;8.43;7.50;;;37.40;45.00;;;;;;5031227;28;20472;-44
2021/09/14 10:35:26;;;;;;;6.40;4.60;;;37.20;44.70;;;;;;5048416;28;20060;-43
2021/09/14 10:37:53;;;;;;;9.60;3.70;;;37.00;44.20;;;;;;5048879;28;20367;-43
2021/09/14 10:40:20;;;;;;;6.10;4.13;;;36.70;45.80;;;;;;5049151;28;20025;-45
2021/09/14 10:42:47;;;;;;;5.00;4.20;;;37.20;45.40;;;;;;5050593;28;20336;-44
2021/09/14 10:45:15;;;;;;;6.22;3.90;;;36.80;45.60;;;;;;5050582;28;20037;-45
2021/09/14 10:47:45;;;;;;;7.60;4.22;;;36.00;46.40;;;;;;5049815;28;20053;-44
2021/09/14 10:50:25;;;;;;;4.05;3.60;;;36.10;46.20;;;;;;5050233;28;20021;-46
2021/09/14 10:52:57;;;;;;;4.32;3.92;;;36.60;45.60;;;;;;5050395;28;20025;-44
2021/09/14 10:55:23;;;;;;;5.80;3.65;;;36.90;44.40;;;;;;5046583;28;20079;-43
2021/09/14 10:57:50;;;;;;;7.85;3.55;;;36.30;46.60;;;;;;5033214;28;20033;-43
2021/09/14 11:00:26;;;;;;;5.40;3.58;;;36.30;46.80;;;;;;5028459;28;20556;-43
2021/09/14 11:02:55;;;;;;;8.48;5.10;;;36.50;46.70;;;;;;5029729;28;20086;-43
2021/09/14 11:05:29;;;;;;;7.40;4.63;;;35.80;45.20;;;;;;5030081;28;20517;-43
2021/09/14 11:08:08;;;;;;;5.57;3.78;;;36.40;46.20;;;;;;5029427;28;20037;-42
2021/09/14 11:10:43;;;;;;;5.35;3.72;;;36.80;45.90;;;;;;5028859;28;20025;-44
2021/09/14 11:13:17;;;;;;;5.75;4.30;;;37.30;45.10;;;;;;5030011;28;20063;-43
2021/09/14 11:15:42;;;;;;;6.50;3.47;;;37.30;44.50;;;;;;5029971;28;20177;-45
2021/09/14 11:18:08;;;;;;;7.40;4.13;;;37.40;44.40;;;;;;5029227;28;20104;-43
2021/09/14 11:20:36;;;;;;;6.72;5.05;;;37.70;44.40;;;;;;5029733;28;20056;-43
2021/09/14 11:23:02;;;;;;;9.45;4.72;;;36.30;45.60;;;;;;5029743;28;20048;-43
2021/09/14 11:25:29;;;;;;;6.30;4.20;;;36.40;45.90;;;;;;5030106;28;20040;-43
2021/09/14 11:27:55;;;;;;;7.30;4.88;;;36.50;46.50;;;;;;5029058;28;20595;-44
2021/09/14 11:30:21;;;;;;;13.95;12.52;;;36.60;45.80;;;;;;5029564;28;20124;-43
2021/09/14 11:32:47;;;;;;;11.52;7.22;;;36.80;45.40;;;;;;5030220;28;20021;-44
2021/09/14 11:35:13;;;;;;;7.47;4.10;;;36.80;45.90;;;;;;5030185;28;20032;-44
2021/09/14 11:37:39;;;;;;;6.00;4.35;;;36.60;45.80;;;;;;5029306;28;20276;-44
2021/09/14 11:40:16;;;;;;;6.43;4.32;;;36.10;44.70;;;;;;5030039;28;20068;-42
2021/09/14 11:43:02;;;;;;;4.50;3.97;;;36.10;46.20;;;;;;5030146;28;20373;-44
2021/09/14 11:45:30;;;;;;;9.00;4.18;;;35.90;46.50;;;;;;5030099;28;20141;-43
2021/09/14 11:47:58;;;;;;;4.97;4.15;;;36.00;45.70;;;;;;5027732;28;20026;-46
2021/09/14 11:50:34;;;;;;;7.75;4.35;;;35.80;46.80;;;;;;5041790;28;20036;-44
2021/09/14 11:53:07;;;;;;;4.50;3.30;;;35.00;46.90;;;;;;5049716;28;20021;-43
2021/09/14 11:55:33;;;;;;;5.82;3.60;;;35.10;47.30;;;;;;5043759;28;20045;-43
2021/09/14 11:58:28;;;;;;;4.95;3.60;;;35.00;47.60;;;;;;5048791;28;20439;-43
2021/09/14 12:00:55;;;;;;;10.02;4.50;;;35.40;47.40;;;;;;5046630;28;20047;-44
2021/09/14 12:03:22;;;;;;;5.43;4.32;;;35.20;47.80;;;;;;5044563;28;20048;-46
2021/09/14 12:05:57;;;;;;;7.97;3.47;;;35.10;48.70;;;;;;5045580;28;20572;-42
2021/09/14 12:08:37;;;;;;;6.80;4.40;;;34.70;47.60;;;;;;5047574;28;20055;-46
2021/09/14 12:11:03;;;;;;;5.70;4.45;;;34.00;48.60;;;;;;5049766;28;20363;-46
2021/09/14 12:13:53;;;;;;;6.40;4.18;;;33.20;50.10;;;;;;5049204;28;20035;-47
2021/09/14 12:16:25;;;;;;;10.43;4.55;;;32.90;50.90;;;;;;5047921;28;20499;-42
2021/09/14 12:18:50;;;;;;;9.00;4.60;;;33.00;51.40;;;;;;5049336;28;20037;-45
2021/09/14 12:21:16;;;;;;;5.13;4.63;;;32.50;51.90;;;;;;5049159;28;20063;-43
2021/09/14 12:23:42;;;;;;;6.55;3.92;;;32.10;52.60;;;;;;5049220;28;20082;-44
2021/09/14 12:26:25;;;;;;;9.52;4.90;;;32.00;53.60;;;;;;5048952;28;20368;-44
2021/09/14 12:28:53;;;;;;;5.53;4.80;;;31.50;54.80;;;;;;5049193;28;20075;-46
2021/09/14 12:31:19;;;;;;;5.22;4.53;;;31.30;53.30;;;;;;5049152;28;20021;-44
2021/09/14 12:33:46;;;;;;;7.07;4.53;;;31.10;54.40;;;;;;5049189;28;20036;-44
2021/09/14 12:36:12;;;;;;;8.35;4.47;;;29.90;55.20;;;;;;5041023;28;20147;-42
2021/09/14 12:38:38;;;;;;;8.60;4.55;;;30.10;55.20;;;;;;5044160;28;20036;-44
2021/09/14 12:41:03;;;;;;;9.23;5.22;;;30.00;57.70;;;;;;5046080;28;20310;-44
2021/09/14 12:43:29;;;;;;;9.15;5.43;;;29.50;56.40;;;;;;5048339;28;20060;-43
2021/09/14 12:45:54;;;;;;;13.98;5.35;;;29.50;57.20;;;;;;5048109;28;20037;-43
2021/09/14 12:48:21;;;;;;;6.55;5.50;;;29.40;57.00;;;;;;5047519;28;20036;-45
2021/09/14 12:50:47;;;;;;;4.90;4.43;;;29.30;57.30;;;;;;5046636;28;20170;-43
2021/09/14 12:53:12;;;;;;;5.65;5.05;;;29.10;57.40;;;;;;5048050;28;20112;-44
2021/09/14 12:55:38;;;;;;;6.38;5.22;;;28.90;58.20;;;;;;5047484;28;20108;-42
2021/09/14 12:58:05;;;;;;;8.32;4.88;;;28.90;58.80;;;;;;5047192;28;20268;-43
2021/09/14 13:00:32;;;;;;;6.80;4.65;;;29.00;58.40;;;;;;5048269;28;20043;-43
2021/09/14 13:02:58;;;;;;;10.00;5.18;;;29.00;58.90;;;;;;5047858;28;20106;-43
2021/09/14 13:05:28;;;;;;;7.18;4.88;;;28.90;59.40;;;;;;5047977;28;20021;-43
2021/09/14 13:07:54;;;;;;;6.70;4.68;;;28.80;59.20;;;;;;5047239;28;20025;-43
2021/09/14 13:10:20;;;;;;;6.60;5.20;;;28.70;58.40;;;;;;5047832;28;20112;-43
2021/09/14 13:12:48;;;;;;;7.63;4.68;;;28.60;61.00;;;;;;5047715;28;20448;-44
2021/09/14 13:17:58;;;;;;;5.63;4.45;;;28.60;59.40;;;;;;5046995;28;20109;-43
2021/09/14 13:20:24;;;;;;;8.00;4.95;;;28.50;59.30;;;;;;5047829;28;20549;-42
2021/09/14 13:22:49;;;;;;;5.18;4.47;;;28.50;58.60;;;;;;5047462;28;20036;-43
2021/09/14 13:25:35;;;;;;;9.77;4.43;;;28.50;58.90;;;;;;5046649;28;20100;-42
2021/09/14 13:28:00;;;;;;;10.63;4.53;;;28.40;60.90;;;;;;5033190;28;20033;-43
2021/09/14 13:30:26;;;;;;;13.13;4.82;;;28.30;59.80;;;;;;5032955;28;20525;-43
2021/09/14 13:32:51;;;;;;;6.32;4.25;;;28.10;60.10;;;;;;5035677;28;20021;-43
2021/09/14 13:35:17;;;;;;;6.80;4.70;;;28.00;59.60;;;;;;5027796;28;20096;-43
2021/09/14 13:37:42;;;;;;;6.47;4.68;;;27.80;60.40;;;;;;5037628;28;20033;-43
2021/09/14 13:40:08;;;;;;;7.10;4.90;;;27.60;60.00;;;;;;5044008;28;20268;-43
2021/09/14 13:42:34;;;;;;;8.23;4.75;;;27.50;60.20;;;;;;5029368;28;20049;-45